sensor_id;sensor_type;location;lat;lon;timestamp;pressure;altitude;pressure_sealevel;temperature;humidity
62201;BME280;48197;42.732;27.192;2023-10-09T00:02:07;100251.66;;;11.82;70.93
62201;BME280;48197;42.732;27.192;2023-10-09T00:04:34;100259.63;;;11.80;68.76
62201;BME280;48197;42.732;27.192;2023-10-09T00:07:03;100251.28;;;11.83;69.71
62201;BME280;48197;42.732;27.192;2023-10-09T00:09:30;100257.25;;;11.78;69.70
62201;BME280;48197;42.732;27.192;2023-10-09T00:11:57;100246.16;;;11.75;67.79
62201;BME280;48197;42.732;27.192;2023-10-09T00:14:24;100246.94;;;11.79;66.79
62201;BME280;48197;42.732;27.192;2023-10-09T00:16:52;100251.31;;;11.80;64.51
62201;BME280;48197;42.732;27.192;2023-10-09T00:19:37;100241.38;;;11.86;65.09
62201;BME280;48197;42.732;27.192;2023-10-09T00:22:03;100231.88;;;11.87;64.51
62201;BME280;48197;42.732;27.192;2023-10-09T00:24:50;100232.28;;;11.82;64.45
62201;BME280;48197;42.732;27.192;2023-10-09T00:27:37;100220.09;;;11.61;67.05
62201;BME280;48197;42.732;27.192;2023-10-09T00:30:05;100213.78;;;11.61;68.38
62201;BME280;48197;42.732;27.192;2023-10-09T00:32:32;100203.88;;;11.63;68.39
62201;BME280;48197;42.732;27.192;2023-10-09T00:34:59;100205.44;;;11.68;67.95
62201;BME280;48197;42.732;27.192;2023-10-09T00:37:46;100206.59;;;11.71;66.42
62201;BME280;48197;42.732;27.192;2023-10-09T00:40:13;100212.53;;;11.73;66.21
62201;BME280;48197;42.732;27.192;2023-10-09T00:42:46;100206.22;;;11.76;63.55
62201;BME280;48197;42.732;27.192;2023-10-09T00:45:13;100216.06;;;11.84;64.59
62201;BME280;48197;42.732;27.192;2023-10-09T00:47:51;100208.94;;;11.83;63.60
62201;BME280;48197;42.732;27.192;2023-10-09T00:50:22;100206.16;;;11.90;62.59
62201;BME280;48197;42.732;27.192;2023-10-09T00:52:50;100214.09;;;11.95;60.43
62201;BME280;48197;42.732;27.192;2023-10-09T00:55:27;100221.19;;;12.03;60.66
62201;BME280;48197;42.732;27.192;2023-10-09T00:58:17;100232.59;;;12.13;60.02
62201;BME280;48197;42.732;27.192;2023-10-09T01:00:49;100259.50;;;12.19;60.59
62201;BME280;48197;42.732;27.192;2023-10-09T01:03:18;100277.28;;;12.22;60.70
62201;BME280;48197;42.732;27.192;2023-10-09T01:05:49;100274.13;;;12.23;60.52
62201;BME280;48197;42.732;27.192;2023-10-09T01:08:35;100277.69;;;12.24;60.37
62201;BME280;48197;42.732;27.192;2023-10-09T01:11:05;100297.88;;;12.28;60.24
62201;BME280;48197;42.732;27.192;2023-10-09T01:13:47;100307.38;;;12.27;61.41
62201;BME280;48197;42.732;27.192;2023-10-09T01:16:17;100312.53;;;12.25;62.11
62201;BME280;48197;42.732;27.192;2023-10-09T01:18:44;100333.88;;;12.24;62.72
62201;BME280;48197;42.732;27.192;2023-10-09T01:21:11;100350.94;;;12.23;63.56
62201;BME280;48197;42.732;27.192;2023-10-09T01:23:47;100364.00;;;12.19;63.67
62201;BME280;48197;42.732;27.192;2023-10-09T01:26:32;100368.38;;;12.13;65.17
62201;BME280;48197;42.732;27.192;2023-10-09T01:29:21;100360.84;;;12.10;65.78
62201;BME280;48197;42.732;27.192;2023-10-09T01:31:52;100363.25;;;12.04;66.23
62201;BME280;48197;42.732;27.192;2023-10-09T01:34:24;100370.41;;;12.01;66.77
62201;BME280;48197;42.732;27.192;2023-10-09T01:37:12;100363.28;;;11.93;67.58
62201;BME280;48197;42.732;27.192;2023-10-09T01:39:53;100380.28;;;11.92;67.81
62201;BME280;48197;42.732;27.192;2023-10-09T01:42:24;100377.13;;;11.90;68.66
62201;BME280;48197;42.732;27.192;2023-10-09T01:44:56;100389.00;;;11.90;68.74
62201;BME280;48197;42.732;27.192;2023-10-09T01:47:37;100389.38;;;11.85;69.48
62201;BME280;48197;42.732;27.192;2023-10-09T01:50:06;100387.38;;;11.82;68.76
62201;BME280;48197;42.732;27.192;2023-10-09T01:52:40;100403.22;;;11.74;68.50
62201;BME280;48197;42.732;27.192;2023-10-09T01:55:08;100408.75;;;11.74;69.26
62201;BME280;48197;42.732;27.192;2023-10-09T01:57:39;100420.22;;;11.76;69.64
62201;BME280;48197;42.732;27.192;2023-10-09T02:00:10;100417.06;;;11.78;69.87
62201;BME280;48197;42.732;27.192;2023-10-09T02:02:50;100420.63;;;11.75;70.13
62201;BME280;48197;42.732;27.192;2023-10-09T02:05:17;100427.34;;;11.74;70.07
62201;BME280;48197;42.732;27.192;2023-10-09T02:07:43;100438.44;;;11.74;69.42
62201;BME280;48197;42.732;27.192;2023-10-09T02:10:11;100435.25;;;11.75;69.36
62201;BME280;48197;42.732;27.192;2023-10-09T02:12:51;100443.19;;;11.80;68.71
62201;BME280;48197;42.732;27.192;2023-10-09T02:15:25;100431.72;;;11.78;68.84
62201;BME280;48197;42.732;27.192;2023-10-09T02:18:18;100439.22;;;11.78;68.64
62201;BME280;48197;42.732;27.192;2023-10-09T02:21:04;100436.88;;;11.80;68.13
62201;BME280;48197;42.732;27.192;2023-10-09T02:23:31;100434.88;;;11.80;67.84
62201;BME280;48197;42.732;27.192;2023-10-09T02:26:11;100438.44;;;11.81;67.40
62201;BME280;48197;42.732;27.192;2023-10-09T02:28:58;100440.41;;;11.80;67.38
62201;BME280;48197;42.732;27.192;2023-10-09T02:31:25;100447.53;;;11.81;67.57
62201;BME280;48197;42.732;27.192;2023-10-09T02:34:02;100446.75;;;11.81;67.07
62201;BME280;48197;42.732;27.192;2023-10-09T02:36:31;100447.53;;;11.81;67.19
62201;BME280;48197;42.732;27.192;2023-10-09T02:39:00;100457.44;;;11.82;66.74
62201;BME280;48197;42.732;27.192;2023-10-09T02:41:27;100460.19;;;11.79;66.44
62201;BME280;48197;42.732;27.192;2023-10-09T02:43:56;100454.63;;;11.75;66.55
62201;BME280;48197;42.732;27.192;2023-10-09T02:46:25;100450.69;;;11.65;66.93
62201;BME280;48197;42.732;27.192;2023-10-09T02:49:01;100457.00;;;11.66;66.95
62201;BME280;48197;42.732;27.192;2023-10-09T02:51:32;100456.22;;;11.69;67.36
62201;BME280;48197;42.732;27.192;2023-10-09T02:54:02;100469.28;;;11.69;67.25
62201;BME280;48197;42.732;27.192;2023-10-09T02:56:45;100466.09;;;11.67;67.33
62201;BME280;48197;42.732;27.192;2023-10-09T02:59:13;100464.53;;;11.65;67.44
62201;BME280;48197;42.732;27.192;2023-10-09T03:01:40;100460.97;;;11.61;68.06
62201;BME280;48197;42.732;27.192;2023-10-09T03:04:07;100477.97;;;11.63;68.50
62201;BME280;48197;42.732;27.192;2023-10-09T03:06:37;100478.75;;;11.64;68.25
62201;BME280;48197;42.732;27.192;2023-10-09T03:09:06;100490.22;;;11.62;68.23
62201;BME280;48197;42.732;27.192;2023-10-09T03:11:49;100490.22;;;11.62;68.53
62201;BME280;48197;42.732;27.192;2023-10-09T03:14:36;100504.47;;;11.64;68.42
62201;BME280;48197;42.732;27.192;2023-10-09T03:17:07;100495.75;;;11.62;68.28
62201;BME280;48197;42.732;27.192;2023-10-09T03:19:37;100500.91;;;11.57;68.51
62201;BME280;48197;42.732;27.192;2023-10-09T03:22:05;100484.28;;;11.60;68.62
62201;BME280;48197;42.732;27.192;2023-10-09T03:24:36;100504.88;;;11.59;68.48
62201;BME280;48197;42.732;27.192;2023-10-09T03:27:03;100486.66;;;11.55;68.13
62201;BME280;48197;42.732;27.192;2023-10-09T03:29:30;100490.22;;;11.55;67.95
62201;BME280;48197;42.732;27.192;2023-10-09T03:31:56;100493.78;;;11.52;68.22
62201;BME280;48197;42.732;27.192;2023-10-09T03:34:23;100500.50;;;11.51;68.75
62201;BME280;48197;42.732;27.192;2023-10-09T03:36:52;100490.19;;;11.44;69.05
62201;BME280;48197;42.732;27.192;2023-10-09T03:39:32;100487.44;;;11.44;69.60
62201;BME280;48197;42.732;27.192;2023-10-09T03:42:07;100491.78;;;11.42;69.20
62201;BME280;48197;42.732;27.192;2023-10-09T03:44:46;100486.63;;;11.40;69.01
62201;BME280;48197;42.732;27.192;2023-10-09T03:47:21;100491.38;;;11.40;69.53
62201;BME280;48197;42.732;27.192;2023-10-09T03:49:53;100501.25;;;11.34;69.94
62201;BME280;48197;42.732;27.192;2023-10-09T03:52:20;100494.91;;;11.37;70.27
62201;BME280;48197;42.732;27.192;2023-10-09T03:54:46;100481.88;;;11.34;70.89
62201;BME280;48197;42.732;27.192;2023-10-09T03:57:13;100491.75;;;11.31;71.47
62201;BME280;48197;42.732;27.192;2023-10-09T03:59:46;100484.25;;;11.35;71.25
62201;BME280;48197;42.732;27.192;2023-10-09T04:02:13;100483.44;;;11.35;71.32
62201;BME280;48197;42.732;27.192;2023-10-09T04:04:40;100479.88;;;11.31;71.01
62201;BME280;48197;42.732;27.192;2023-10-09T04:07:12;100490.16;;;11.30;71.10
62201;BME280;48197;42.732;27.192;2023-10-09T04:09:38;100481.06;;;11.30;71.43
62201;BME280;48197;42.732;27.192;2023-10-09T04:12:14;100500.00;;;11.24;72.24
62201;BME280;48197;42.732;27.192;2023-10-09T04:14:47;100510.28;;;11.23;72.63
62201;BME280;48197;42.732;27.192;2023-10-09T04:17:31;100509.47;;;11.19;72.79
62201;BME280;48197;42.732;27.192;2023-10-09T04:20:03;100515.41;;;11.18;72.81
62201;BME280;48197;42.732;27.192;2023-10-09T04:22:45;100507.09;;;11.14;70.58
62201;BME280;48197;42.732;27.192;2023-10-09T04:25:25;100516.16;;;11.11;70.52
62201;BME280;48197;42.732;27.192;2023-10-09T04:27:53;100519.34;;;11.13;71.03
62201;BME280;48197;42.732;27.192;2023-10-09T04:30:37;100517.31;;;11.03;70.96
62201;BME280;48197;42.732;27.192;2023-10-09T04:33:06;100524.81;;;10.99;68.67
62201;BME280;48197;42.732;27.192;2023-10-09T04:35:38;100518.84;;;10.93;66.91
62201;BME280;48197;42.732;27.192;2023-10-09T04:38:04;100532.72;;;10.97;66.89
62201;BME280;48197;42.732;27.192;2023-10-09T04:40:31;100533.88;;;10.96;66.74
62201;BME280;48197;42.732;27.192;2023-10-09T04:43:13;100529.94;;;11.00;68.46
62201;BME280;48197;42.732;27.192;2023-10-09T04:45:47;100535.47;;;10.93;69.35
62201;BME280;48197;42.732;27.192;2023-10-09T04:48:33;100542.56;;;10.94;69.47
62201;BME280;48197;42.732;27.192;2023-10-09T04:51:00;100532.31;;;10.98;68.90
62201;BME280;48197;42.732;27.192;2023-10-09T04:53:44;100546.53;;;10.97;68.58
62201;BME280;48197;42.732;27.192;2023-10-09T04:56:22;100527.19;;;10.97;68.14
62201;BME280;48197;42.732;27.192;2023-10-09T04:58:50;100542.19;;;10.96;67.22
62201;BME280;48197;42.732;27.192;2023-10-09T05:01:30;100533.53;;;11.04;65.66
62201;BME280;48197;42.732;27.192;2023-10-09T05:04:03;100557.66;;;11.08;64.76
62201;BME280;48197;42.732;27.192;2023-10-09T05:06:30;100552.50;;;11.06;63.57
62201;BME280;48197;42.732;27.192;2023-10-09T05:09:21;100556.50;;;11.12;62.65
62201;BME280;48197;42.732;27.192;2023-10-09T05:11:48;100563.59;;;11.13;61.54
62201;BME280;48197;42.732;27.192;2023-10-09T05:14:18;100558.81;;;11.03;60.65
62201;BME280;48197;42.732;27.192;2023-10-09T05:16:53;100563.16;;;10.97;60.40
62201;BME280;48197;42.732;27.192;2023-10-09T05:19:27;100572.97;;;10.91;60.67
62201;BME280;48197;42.732;27.192;2023-10-09T05:22:15;100578.03;;;10.78;60.70
62201;BME280;48197;42.732;27.192;2023-10-09T05:25:17;100588.94;;;10.60;60.30
62201;BME280;48197;42.732;27.192;2023-10-09T05:28:05;100589.28;;;10.48;60.07
62201;BME280;48197;42.732;27.192;2023-10-09T05:30:52;100600.28;;;10.44;60.24
62201;BME280;48197;42.732;27.192;2023-10-09T05:33:53;100602.41;;;10.61;59.78
62201;BME280;48197;42.732;27.192;2023-10-09T05:36:27;100610.50;;;10.88;58.99
62201;BME280;48197;42.732;27.192;2023-10-09T05:38:54;100610.66;;;11.17;58.40
62201;BME280;48197;42.732;27.192;2023-10-09T05:41:45;100622.34;;;11.62;56.45
62201;BME280;48197;42.732;27.192;2023-10-09T05:44:18;100630.34;;;11.78;55.46
62201;BME280;48197;42.732;27.192;2023-10-09T05:47:03;100631.53;;;11.80;54.64
62201;BME280;48197;42.732;27.192;2023-10-09T05:49:55;100639.03;;;11.76;53.92
62201;BME280;48197;42.732;27.192;2023-10-09T05:52:41;100642.97;;;11.72;54.00
62201;BME280;48197;42.732;27.192;2023-10-09T05:55:08;100639.03;;;11.80;53.73
62201;BME280;48197;42.732;27.192;2023-10-09T05:57:53;100653.63;;;11.66;53.13
62201;BME280;48197;42.732;27.192;2023-10-09T06:00:36;100663.16;;;11.76;51.26
62201;BME280;48197;42.732;27.192;2023-10-09T06:03:20;100669.66;;;12.26;47.60
62201;BME280;48197;42.732;27.192;2023-10-09T06:05:48;100685.53;;;12.48;46.65
62201;BME280;48197;42.732;27.192;2023-10-09T06:08:24;100703.00;;;12.77;45.97
62201;BME280;48197;42.732;27.192;2023-10-09T06:10:53;100704.97;;;12.69;45.00
62201;BME280;48197;42.732;27.192;2023-10-09T06:13:37;100723.94;;;12.45;43.58
62201;BME280;48197;42.732;27.192;2023-10-09T06:16:04;100716.06;;;12.58;43.87
62201;BME280;48197;42.732;27.192;2023-10-09T06:18:56;100724.81;;;12.89;43.96
62201;BME280;48197;42.732;27.192;2023-10-09T06:21:42;100711.72;;;13.07;43.31
62201;BME280;48197;42.732;27.192;2023-10-09T06:24:09;100716.09;;;13.30;42.37
62201;BME280;48197;42.732;27.192;2023-10-09T06:26:41;100719.97;;;13.68;41.79
62201;BME280;48197;42.732;27.192;2023-10-09T06:29:19;100721.78;;;14.07;40.56
62201;BME280;48197;42.732;27.192;2023-10-09T06:32:04;100725.25;;;14.96;39.04
62201;BME280;48197;42.732;27.192;2023-10-09T06:34:50;100719.09;;;14.67;37.38
62201;BME280;48197;42.732;27.192;2023-10-09T06:37:26;100715.88;;;14.02;38.75
62201;BME280;48197;42.732;27.192;2023-10-09T06:39:53;100716.00;;;13.59;39.16
62201;BME280;48197;42.732;27.192;2023-10-09T06:42:26;100714.84;;;13.53;39.85
62201;BME280;48197;42.732;27.192;2023-10-09T07:13:42;100736.53;;;16.03;32.46
62201;BME280;48197;42.732;27.192;2023-10-09T07:16:10;100742.69;;;16.48;32.57
62201;BME280;48197;42.732;27.192;2023-10-09T07:19:05;100745.06;;;17.28;31.03
62201;BME280;48197;42.732;27.192;2023-10-09T07:21:57;100746.03;;;17.18;30.54
62201;BME280;48197;42.732;27.192;2023-10-09T07:24:29;100741.47;;;16.80;30.79
62201;BME280;48197;42.732;27.192;2023-10-09T07:27:09;100754.16;;;16.27;31.81
62201;BME280;48197;42.732;27.192;2023-10-09T07:29:40;100754.78;;;16.38;31.83
62201;BME280;48197;42.732;27.192;2023-10-09T07:32:18;100764.38;;;16.37;32.25
62201;BME280;48197;42.732;27.192;2023-10-09T07:34:50;100767.03;;;17.02;31.23
62201;BME280;48197;42.732;27.192;2023-10-09T07:37:25;100762.50;;;17.35;30.78
62201;BME280;48197;42.732;27.192;2023-10-09T07:39:56;100762.38;;;17.19;31.14
62201;BME280;48197;42.732;27.192;2023-10-09T07:42:24;100759.50;;;16.99;30.83
62201;BME280;48197;42.732;27.192;2023-10-09T07:45:07;100757.81;;;16.78;31.77
62201;BME280;48197;42.732;27.192;2023-10-09T07:47:46;100751.31;;;16.30;32.28
62201;BME280;48197;42.732;27.192;2023-10-09T07:50:28;100753.09;;;16.44;32.38
62201;BME280;48197;42.732;27.192;2023-10-09T07:53:14;100766.13;;;16.54;32.16
62201;BME280;48197;42.732;27.192;2023-10-09T07:55:53;100765.06;;;16.72;31.68
62201;BME280;48197;42.732;27.192;2023-10-09T07:58:32;100762.19;;;17.30;31.09
62201;BME280;48197;42.732;27.192;2023-10-09T08:01:12;100765.63;;;16.90;31.37
62201;BME280;48197;42.732;27.192;2023-10-09T08:03:42;100765.56;;;16.36;32.45
62201;BME280;48197;42.732;27.192;2023-10-09T08:06:12;100768.13;;;15.92;32.97
62201;BME280;48197;42.732;27.192;2023-10-09T08:08:59;100768.84;;;15.59;33.08
62201;BME280;48197;42.732;27.192;2023-10-09T08:11:30;100763.81;;;15.84;33.31
62201;BME280;48197;42.732;27.192;2023-10-09T08:14:09;100762.75;;;16.67;32.70
62201;BME280;48197;42.732;27.192;2023-10-09T08:16:55;100763.19;;;17.63;31.33
62201;BME280;48197;42.732;27.192;2023-10-09T08:19:46;100763.81;;;18.14;30.64
62201;BME280;48197;42.732;27.192;2023-10-09T08:22:37;100767.47;;;18.11;29.77
62201;BME280;48197;42.732;27.192;2023-10-09T08:25:15;100754.84;;;18.03;30.50
62201;BME280;48197;42.732;27.192;2023-10-09T08:27:59;100747.31;;;18.20;29.58
62201;BME280;48197;42.732;27.192;2023-10-09T08:30:41;100747.16;;;18.27;29.41
62201;BME280;48197;42.732;27.192;2023-10-09T08:33:16;100746.44;;;18.60;29.94
62201;BME280;48197;42.732;27.192;2023-10-09T08:35:54;100734.59;;;19.05;29.21
62201;BME280;48197;42.732;27.192;2023-10-09T08:38:30;100731.66;;;19.41;28.82
62201;BME280;48197;42.732;27.192;2023-10-09T08:41:06;100729.66;;;19.42;28.67
62201;BME280;48197;42.732;27.192;2023-10-09T08:43:43;100725.06;;;19.02;29.17
62201;BME280;48197;42.732;27.192;2023-10-09T08:46:13;100728.97;;;19.05;29.56
62201;BME280;48197;42.732;27.192;2023-10-09T08:48:43;100725.47;;;19.17;28.86
62201;BME280;48197;42.732;27.192;2023-10-09T08:51:11;100726.59;;;19.36;28.98
62201;BME280;48197;42.732;27.192;2023-10-09T08:53:38;100718.75;;;19.44;28.32
62201;BME280;48197;42.732;27.192;2023-10-09T08:56:09;100720.22;;;19.19;28.63
62201;BME280;48197;42.732;27.192;2023-10-09T08:58:36;100713.00;;;19.34;28.15
62201;BME280;48197;42.732;27.192;2023-10-09T09:01:04;100720.94;;;19.07;28.76
62201;BME280;48197;42.732;27.192;2023-10-09T09:03:39;100723.50;;;19.01;29.12
62201;BME280;48197;42.732;27.192;2023-10-09T09:06:07;100722.16;;;19.06;28.89
62201;BME280;48197;42.732;27.192;2023-10-09T09:08:34;100719.06;;;18.67;29.44
62201;BME280;48197;42.732;27.192;2023-10-09T09:11:11;100714.44;;;18.61;29.38
62201;BME280;48197;42.732;27.192;2023-10-09T09:13:46;100718.78;;;18.62;29.45
62201;BME280;48197;42.732;27.192;2023-10-09T09:16:16;100719.91;;;18.11;29.76
62201;BME280;48197;42.732;27.192;2023-10-09T09:18:52;100712.75;;;18.10;29.84
62201;BME280;48197;42.732;27.192;2023-10-09T09:21:22;100710.22;;;18.69;29.64
62201;BME280;48197;42.732;27.192;2023-10-09T09:23:56;100707.34;;;18.72;29.99
62201;BME280;48197;42.732;27.192;2023-10-09T09:26:37;100710.88;;;18.93;29.49
62201;BME280;48197;42.732;27.192;2023-10-09T09:29:04;100709.78;;;19.20;29.30
62201;BME280;48197;42.732;27.192;2023-10-09T09:31:34;100705.22;;;19.71;28.72
62201;BME280;48197;42.732;27.192;2023-10-09T09:34:08;100701.63;;;19.71;28.77
62201;BME280;48197;42.732;27.192;2023-10-09T09:36:53;100709.50;;;19.76;28.81
62201;BME280;48197;42.732;27.192;2023-10-09T09:39:24;100678.91;;;19.52;28.78
62201;BME280;48197;42.732;27.192;2023-10-09T09:41:57;100697.88;;;19.90;28.44
62201;BME280;48197;42.732;27.192;2023-10-09T09:44:33;100695.34;;;20.47;28.00
62201;BME280;48197;42.732;27.192;2023-10-09T09:47:12;100687.38;;;20.46;27.92
62201;BME280;48197;42.732;27.192;2023-10-09T09:49:41;100684.44;;;20.11;28.10
62201;BME280;48197;42.732;27.192;2023-10-09T09:52:08;100687.81;;;20.06;28.38
62201;BME280;48197;42.732;27.192;2023-10-09T09:54:38;100677.13;;;20.01;28.46
62201;BME280;48197;42.732;27.192;2023-10-09T09:57:06;100663.78;;;20.05;28.46
62201;BME280;48197;42.732;27.192;2023-10-09T09:59:40;100656.47;;;19.94;28.33
62201;BME280;48197;42.732;27.192;2023-10-09T10:02:35;100657.59;;;20.23;28.05
62201;BME280;48197;42.732;27.192;2023-10-09T10:05:06;100650.41;;;19.96;28.25
62201;BME280;48197;42.732;27.192;2023-10-09T10:07:37;100650.00;;;20.10;28.19
62201;BME280;48197;42.732;27.192;2023-10-09T10:13:03;100633.19;;;20.84;26.66
62201;BME280;48197;42.732;27.192;2023-10-09T10:18:15;100613.28;;;20.17;27.56
62201;BME280;48197;42.732;27.192;2023-10-09T10:23:32;100602.78;;;20.56;27.43
62201;BME280;48197;42.732;27.192;2023-10-09T10:26:16;100607.94;;;21.06;26.74
62201;BME280;48197;42.732;27.192;2023-10-09T10:29:28;100602.09;;;21.57;25.91
62201;BME280;48197;42.732;27.192;2023-10-09T10:31:53;100592.06;;;21.12;26.74
62201;BME280;48197;42.732;27.192;2023-10-09T10:34:24;100595.50;;;20.72;27.13
62201;BME280;48197;42.732;27.192;2023-10-09T10:36:52;100604.78;;;20.82;27.24
62201;BME280;48197;42.732;27.192;2023-10-09T10:39:24;100602.91;;;20.66;27.12
62201;BME280;48197;42.732;27.192;2023-10-09T10:42:10;100603.13;;;21.06;26.39
62201;BME280;48197;42.732;27.192;2023-10-09T10:44:57;100594.25;;;21.52;25.68
62201;BME280;48197;42.732;27.192;2023-10-09T10:47:25;100587.03;;;21.73;25.51
62201;BME280;48197;42.732;27.192;2023-10-09T10:49:58;100586.31;;;21.37;25.65
62201;BME280;48197;42.732;27.192;2023-10-09T10:52:34;100586.06;;;21.00;26.25
62201;BME280;48197;42.732;27.192;2023-10-09T10:55:11;100574.03;;;20.52;26.47
62201;BME280;48197;42.732;27.192;2023-10-09T10:58:25;100571.28;;;20.14;26.80
62201;BME280;48197;42.732;27.192;2023-10-09T11:01:01;100570.84;;;19.77;27.11
62201;BME280;48197;42.732;27.192;2023-10-09T11:03:41;100581.28;;;19.76;27.03
62201;BME280;48197;42.732;27.192;2023-10-09T11:06:31;100572.81;;;20.53;26.57
62201;BME280;48197;42.732;27.192;2023-10-09T11:09:06;100579.44;;;21.16;25.84
62201;BME280;48197;42.732;27.192;2023-10-09T11:11:48;100568.88;;;21.65;25.29
62201;BME280;48197;42.732;27.192;2023-10-09T11:14:16;100562.25;;;21.58;25.00
62201;BME280;48197;42.732;27.192;2023-10-09T11:16:52;100557.56;;;21.33;25.80
62201;BME280;48197;42.732;27.192;2023-10-09T11:19:23;100546.97;;;21.15;25.91
62201;BME280;48197;42.732;27.192;2023-10-09T11:21:54;100538.34;;;20.88;26.03
62201;BME280;48197;42.732;27.192;2023-10-09T11:24:33;100531.19;;;20.74;26.16
62201;BME280;48197;42.732;27.192;2023-10-09T11:27:05;100520.53;;;21.57;25.69
62201;BME280;48197;42.732;27.192;2023-10-09T11:29:35;100531.03;;;21.66;25.18
62201;BME280;48197;42.732;27.192;2023-10-09T11:32:17;100512.28;;;21.63;25.20
62201;BME280;48197;42.732;27.192;2023-10-09T11:34:46;100520.97;;;21.24;25.77
62201;BME280;48197;42.732;27.192;2023-10-09T11:37:21;100521.66;;;20.71;26.18
62201;BME280;48197;42.732;27.192;2023-10-09T11:39:54;100515.75;;;20.44;27.08
62201;BME280;48197;42.732;27.192;2023-10-09T11:42:22;100503.53;;;20.37;27.65
62201;BME280;48197;42.732;27.192;2023-10-09T11:45:05;100503.84;;;20.52;27.84
62201;BME280;48197;42.732;27.192;2023-10-09T11:47:52;100497.31;;;20.08;28.27
62201;BME280;48197;42.732;27.192;2023-10-09T11:50:41;100495.66;;;20.80;27.75
62201;BME280;48197;42.732;27.192;2023-10-09T11:53:10;100477.09;;;21.58;26.67
62201;BME280;48197;42.732;27.192;2023-10-09T11:55:48;100482.97;;;22.41;25.68
62201;BME280;48197;42.732;27.192;2023-10-09T11:58:18;100477.47;;;23.11;25.72
62201;BME280;48197;42.732;27.192;2023-10-09T12:00:54;100486.81;;;23.27;24.68
62201;BME280;48197;42.732;27.192;2023-10-09T12:03:31;100486.25;;;21.80;25.51
62201;BME280;48197;42.732;27.192;2023-10-09T12:05:58;100481.56;;;21.77;26.19
62201;BME280;48197;42.732;27.192;2023-10-09T12:08:31;100469.97;;;22.53;26.21
62201;BME280;48197;42.732;27.192;2023-10-09T12:10:58;100481.72;;;22.60;26.18
62201;BME280;48197;42.732;27.192;2023-10-09T12:13:25;100478.09;;;22.78;26.74
62201;BME280;48197;42.732;27.192;2023-10-09T12:15:52;100465.06;;;23.18;26.58
62201;BME280;48197;42.732;27.192;2023-10-09T12:18:20;100459.75;;;23.20;26.20
62201;BME280;48197;42.732;27.192;2023-10-09T12:20:46;100452.53;;;23.19;26.47
62201;BME280;48197;42.732;27.192;2023-10-09T12:23:28;100441.56;;;23.21;26.13
62201;BME280;48197;42.732;27.192;2023-10-09T12:25:55;100426.44;;;22.91;26.58
62201;BME280;48197;42.732;27.192;2023-10-09T12:28:23;100429.13;;;22.67;27.07
62201;BME280;48197;42.732;27.192;2023-10-09T12:30:49;100430.06;;;22.54;27.35
62201;BME280;48197;42.732;27.192;2023-10-09T12:33:19;100426.13;;;22.79;27.02
62201;BME280;48197;42.732;27.192;2023-10-09T12:35:46;100424.22;;;23.13;27.28
62201;BME280;48197;42.732;27.192;2023-10-09T12:38:13;100420.31;;;23.44;26.57
62201;BME280;48197;42.732;27.192;2023-10-09T12:40:45;100416.84;;;22.97;26.99
62201;BME280;48197;42.732;27.192;2023-10-09T12:43:18;100409.53;;;22.72;27.19
62201;BME280;48197;42.732;27.192;2023-10-09T12:45:48;100412.47;;;22.96;27.38
62201;BME280;48197;42.732;27.192;2023-10-09T12:48:15;100399.97;;;22.88;27.41
62201;BME280;48197;42.732;27.192;2023-10-09T12:50:41;100403.53;;;22.98;27.25
62201;BME280;48197;42.732;27.192;2023-10-09T12:53:11;100402.13;;;23.12;26.98
62201;BME280;48197;42.732;27.192;2023-10-09T12:55:44;100402.22;;;23.60;27.56
62201;BME280;48197;42.732;27.192;2023-10-09T12:58:11;100416.88;;;23.73;28.17
62201;BME280;48197;42.732;27.192;2023-10-09T13:00:44;100410.13;;;23.04;28.69
62201;BME280;48197;42.732;27.192;2023-10-09T13:03:15;100396.69;;;22.90;29.23
62201;BME280;48197;42.732;27.192;2023-10-09T13:05:45;100390.22;;;23.08;29.13
62201;BME280;48197;42.732;27.192;2023-10-09T13:08:31;100382.56;;;22.99;29.32
62201;BME280;48197;42.732;27.192;2023-10-09T13:11:05;100379.75;;;22.99;29.62
62201;BME280;48197;42.732;27.192;2023-10-09T13:13:38;100373.38;;;22.80;29.34
62201;BME280;48197;42.732;27.192;2023-10-09T13:16:32;100382.97;;;23.25;29.46
62201;BME280;48197;42.732;27.192;2023-10-09T13:19:00;100368.16;;;23.39;29.22
62201;BME280;48197;42.732;27.192;2023-10-09T13:21:33;100376.47;;;23.43;29.12
62201;BME280;48197;42.732;27.192;2023-10-09T13:24:00;100372.00;;;23.51;28.86
62201;BME280;48197;42.732;27.192;2023-10-09T13:26:28;100371.06;;;23.88;28.96
62201;BME280;48197;42.732;27.192;2023-10-09T13:28:56;100363.41;;;23.79;29.03
62201;BME280;48197;42.732;27.192;2023-10-09T13:31:24;100356.50;;;23.56;29.21
62201;BME280;48197;42.732;27.192;2023-10-09T13:33:52;100364.50;;;23.15;29.89
62201;BME280;48197;42.732;27.192;2023-10-09T13:36:22;100351.28;;;22.88;30.42
62201;BME280;48197;42.732;27.192;2023-10-09T13:38:58;100356.81;;;22.63;31.12
62201;BME280;48197;42.732;27.192;2023-10-09T13:41:46;100346.38;;;22.46;31.91
62201;BME280;48197;42.732;27.192;2023-10-09T13:44:13;100346.69;;;22.48;31.69
62201;BME280;48197;42.732;27.192;2023-10-09T13:46:39;100348.09;;;22.34;31.97
62201;BME280;48197;42.732;27.192;2023-10-09T13:49:09;100345.28;;;22.25;32.52
62201;BME280;48197;42.732;27.192;2023-10-09T13:51:41;100342.16;;;22.04;33.93
62201;BME280;48197;42.732;27.192;2023-10-09T13:54:12;100330.44;;;21.87;34.22
62201;BME280;48197;42.732;27.192;2023-10-09T13:56:55;100336.94;;;21.07;35.22